sensor_id;sensor_type;location;lat;lon;timestamp;P1;durP1;ratioP1;P2;durP2;ratioP2
52386;SDS011;38317;53.084;6.960;2023-10-13T00:00:26;36.45;;;18.00;;
52386;SDS011;38317;53.084;6.960;2023-10-13T00:02:55;39.00;;;18.27;;
52386;SDS011;38317;53.084;6.960;2023-10-13T00:05:26;44.08;;;19.90;;
52386;SDS011;38317;53.084;6.960;2023-10-13T00:10:30;42.30;;;19.98;;
52386;SDS011;38317;53.084;6.960;2023-10-13T00:12:58;49.78;;;20.50;;
52386;SDS011;38317;53.084;6.960;2023-10-13T00:15:51;46.37;;;20.37;;
52386;SDS011;38317;53.084;6.960;2023-10-13T00:18:31;45.58;;;19.55;;
52386;SDS011;38317;53.084;6.960;2023-10-13T00:21:06;47.00;;;20.02;;
52386;SDS011;38317;53.084;6.960;2023-10-13T00:24:00;43.75;;;20.10;;
52386;SDS011;38317;53.084;6.960;2023-10-13T00:26:39;43.58;;;19.58;;
52386;SDS011;38317;53.084;6.960;2023-10-13T00:29:08;34.35;;;18.55;;
52386;SDS011;38317;53.084;6.960;2023-10-13T00:31:35;37.67;;;19.15;;
52386;SDS011;38317;53.084;6.960;2023-10-13T00:34:03;35.50;;;18.10;;
52386;SDS011;38317;53.084;6.960;2023-10-13T00:36:50;45.15;;;18.90;;
52386;SDS011;38317;53.084;6.960;2023-10-13T00:39:35;35.78;;;18.58;;
52386;SDS011;38317;53.084;6.960;2023-10-13T00:42:11;34.42;;;17.58;;
52386;SDS011;38317;53.084;6.960;2023-10-13T00:44:51;41.78;;;18.00;;
52386;SDS011;38317;53.084;6.960;2023-10-13T00:47:19;33.20;;;17.65;;
52386;SDS011;38317;53.084;6.960;2023-10-13T00:50:02;33.67;;;16.67;;
52386;SDS011;38317;53.084;6.960;2023-10-13T00:52:35;36.38;;;17.50;;
52386;SDS011;38317;53.084;6.960;2023-10-13T00:55:03;39.03;;;18.05;;
52386;SDS011;38317;53.084;6.960;2023-10-13T00:57:33;35.40;;;17.33;;
52386;SDS011;38317;53.084;6.960;2023-10-13T00:59:59;40.45;;;18.77;;
52386;SDS011;38317;53.084;6.960;2023-10-13T01:02:37;40.78;;;17.90;;
52386;SDS011;38317;53.084;6.960;2023-10-13T01:05:03;40.80;;;18.00;;
52386;SDS011;38317;53.084;6.960;2023-10-13T01:07:44;43.78;;;18.63;;
52386;SDS011;38317;53.084;6.960;2023-10-13T01:10:11;36.63;;;18.45;;
52386;SDS011;38317;53.084;6.960;2023-10-13T01:12:40;41.30;;;19.63;;
52386;SDS011;38317;53.084;6.960;2023-10-13T01:15:11;35.58;;;18.70;;
52386;SDS011;38317;53.084;6.960;2023-10-13T01:17:43;38.65;;;19.02;;
52386;SDS011;38317;53.084;6.960;2023-10-13T01:20:12;37.75;;;18.83;;
52386;SDS011;38317;53.084;6.960;2023-10-13T01:22:53;39.05;;;19.83;;
52386;SDS011;38317;53.084;6.960;2023-10-13T01:25:22;34.10;;;19.67;;
52386;SDS011;38317;53.084;6.960;2023-10-13T01:27:53;35.38;;;16.70;;
52386;SDS011;38317;53.084;6.960;2023-10-13T01:30:19;40.58;;;18.92;;
52386;SDS011;38317;53.084;6.960;2023-10-13T01:32:53;34.33;;;18.95;;
52386;SDS011;38317;53.084;6.960;2023-10-13T01:35:19;36.40;;;17.90;;
52386;SDS011;38317;53.084;6.960;2023-10-13T01:37:51;30.13;;;17.30;;
52386;SDS011;38317;53.084;6.960;2023-10-13T01:40:17;34.67;;;16.73;;
52386;SDS011;38317;53.084;6.960;2023-10-13T01:42:48;35.65;;;16.83;;
52386;SDS011;38317;53.084;6.960;2023-10-13T01:45:20;29.83;;;17.13;;
52386;SDS011;38317;53.084;6.960;2023-10-13T01:47:46;36.58;;;17.27;;
52386;SDS011;38317;53.084;6.960;2023-10-13T01:50:16;29.75;;;15.80;;
52386;SDS011;38317;53.084;6.960;2023-10-13T01:52:47;30.73;;;15.20;;
52386;SDS011;38317;53.084;6.960;2023-10-13T01:55:13;24.60;;;13.27;;
52386;SDS011;38317;53.084;6.960;2023-10-13T01:57:45;28.13;;;14.18;;
52386;SDS011;38317;53.084;6.960;2023-10-13T02:00:13;25.73;;;13.90;;
52386;SDS011;38317;53.084;6.960;2023-10-13T02:02:45;24.70;;;13.23;;
52386;SDS011;38317;53.084;6.960;2023-10-13T02:05:15;23.75;;;12.90;;
52386;SDS011;38317;53.084;6.960;2023-10-13T02:07:42;24.50;;;13.95;;
52386;SDS011;38317;53.084;6.960;2023-10-13T02:10:13;26.90;;;13.35;;
52386;SDS011;38317;53.084;6.960;2023-10-13T02:12:39;22.85;;;13.82;;
52386;SDS011;38317;53.084;6.960;2023-10-13T02:15:09;27.08;;;14.15;;
52386;SDS011;38317;53.084;6.960;2023-10-13T02:17:51;26.45;;;15.23;;
52386;SDS011;38317;53.084;6.960;2023-10-13T02:20:20;27.83;;;15.68;;
52386;SDS011;38317;53.084;6.960;2023-10-13T02:22:51;29.88;;;15.40;;
52386;SDS011;38317;53.084;6.960;2023-10-13T02:25:17;28.27;;;14.98;;
52386;SDS011;38317;53.084;6.960;2023-10-13T02:28:22;31.80;;;15.85;;
52386;SDS011;38317;53.084;6.960;2023-10-13T02:30:53;31.35;;;16.88;;
52386;SDS011;38317;53.084;6.960;2023-10-13T02:33:19;35.13;;;19.02;;
52386;SDS011;38317;53.084;6.960;2023-10-13T02:35:50;36.42;;;19.08;;
52386;SDS011;38317;53.084;6.960;2023-10-13T02:38:19;34.92;;;19.85;;
52386;SDS011;38317;53.084;6.960;2023-10-13T02:41:12;38.22;;;19.10;;
52386;SDS011;38317;53.084;6.960;2023-10-13T02:46:25;42.58;;;19.90;;
52386;SDS011;38317;53.084;6.960;2023-10-13T02:48:54;33.30;;;19.05;;
52386;SDS011;38317;53.084;6.960;2023-10-13T02:51:22;34.85;;;19.15;;
52386;SDS011;38317;53.084;6.960;2023-10-13T02:53:57;37.67;;;19.08;;
52386;SDS011;38317;53.084;6.960;2023-10-13T02:56:28;35.35;;;18.23;;
52386;SDS011;38317;53.084;6.960;2023-10-13T02:58:54;32.92;;;18.23;;
52386;SDS011;38317;53.084;6.960;2023-10-13T03:01:30;32.17;;;18.77;;
52386;SDS011;38317;53.084;6.960;2023-10-13T03:03:59;31.95;;;18.35;;
52386;SDS011;38317;53.084;6.960;2023-10-13T03:06:26;29.48;;;17.98;;
52386;SDS011;38317;53.084;6.960;2023-10-13T03:08:59;35.13;;;18.05;;
52386;SDS011;38317;53.084;6.960;2023-10-13T03:11:38;33.00;;;18.77;;
52386;SDS011;38317;53.084;6.960;2023-10-13T03:14:12;33.97;;;17.75;;
52386;SDS011;38317;53.084;6.960;2023-10-13T03:16:58;29.27;;;18.60;;
52386;SDS011;38317;53.084;6.960;2023-10-13T03:19:32;32.03;;;17.98;;
52386;SDS011;38317;53.084;6.960;2023-10-13T03:21:59;29.00;;;17.35;;
52386;SDS011;38317;53.084;6.960;2023-10-13T03:24:35;30.65;;;17.35;;
52386;SDS011;38317;53.084;6.960;2023-10-13T03:27:02;34.03;;;17.30;;
52386;SDS011;38317;53.084;6.960;2023-10-13T03:29:35;33.70;;;18.27;;
52386;SDS011;38317;53.084;6.960;2023-10-13T03:32:03;29.10;;;17.85;;
52386;SDS011;38317;53.084;6.960;2023-10-13T03:34:32;28.05;;;17.50;;
52386;SDS011;38317;53.084;6.960;2023-10-13T03:37:00;30.75;;;17.13;;
52386;SDS011;38317;53.084;6.960;2023-10-13T03:39:35;28.10;;;16.90;;
52386;SDS011;38317;53.084;6.960;2023-10-13T03:42:01;29.23;;;15.82;;
52386;SDS011;38317;53.084;6.960;2023-10-13T03:44:30;28.90;;;15.30;;
52386;SDS011;38317;53.084;6.960;2023-10-13T03:46:56;28.23;;;15.63;;
52386;SDS011;38317;53.084;6.960;2023-10-13T03:49:33;31.25;;;16.05;;
52386;SDS011;38317;53.084;6.960;2023-10-13T03:52:02;31.05;;;16.70;;
52386;SDS011;38317;53.084;6.960;2023-10-13T03:54:31;30.50;;;16.45;;
52386;SDS011;38317;53.084;6.960;2023-10-13T03:57:00;25.40;;;15.40;;
52386;SDS011;38317;53.084;6.960;2023-10-13T03:59:29;28.83;;;16.25;;
52386;SDS011;38317;53.084;6.960;2023-10-13T04:02:00;29.23;;;15.68;;
52386;SDS011;38317;53.084;6.960;2023-10-13T04:04:28;27.85;;;14.93;;
52386;SDS011;38317;53.084;6.960;2023-10-13T04:07:03;25.45;;;14.80;;
52386;SDS011;38317;53.084;6.960;2023-10-13T04:09:35;25.88;;;13.20;;
52386;SDS011;38317;53.084;6.960;2023-10-13T04:12:03;22.02;;;13.35;;
52386;SDS011;38317;53.084;6.960;2023-10-13T04:14:30;24.50;;;12.65;;
52386;SDS011;38317;53.084;6.960;2023-10-13T04:17:15;22.60;;;12.98;;
52386;SDS011;38317;53.084;6.960;2023-10-13T04:19:47;20.83;;;11.95;;
52386;SDS011;38317;53.084;6.960;2023-10-13T04:22:32;22.05;;;12.63;;
52386;SDS011;38317;53.084;6.960;2023-10-13T04:25:14;20.10;;;11.38;;
52386;SDS011;38317;53.084;6.960;2023-10-13T04:28:02;23.50;;;12.35;;
52386;SDS011;38317;53.084;6.960;2023-10-13T04:30:37;21.25;;;12.18;;
52386;SDS011;38317;53.084;6.960;2023-10-13T04:33:28;20.50;;;12.13;;
52386;SDS011;38317;53.084;6.960;2023-10-13T04:38:40;20.77;;;12.80;;
52386;SDS011;38317;53.084;6.960;2023-10-13T04:41:32;23.90;;;13.10;;
52386;SDS011;38317;53.084;6.960;2023-10-13T04:44:22;21.52;;;12.00;;
52386;SDS011;38317;53.084;6.960;2023-10-13T04:47:05;24.77;;;13.13;;
52386;SDS011;38317;53.084;6.960;2023-10-13T04:49:43;22.08;;;12.75;;
52386;SDS011;38317;53.084;6.960;2023-10-13T04:52:12;22.55;;;13.23;;
52386;SDS011;38317;53.084;6.960;2023-10-13T04:54:52;22.80;;;13.27;;
52386;SDS011;38317;53.084;6.960;2023-10-13T04:57:21;21.30;;;13.15;;
52386;SDS011;38317;53.084;6.960;2023-10-13T05:00:27;22.50;;;12.93;;
52386;SDS011;38317;53.084;6.960;2023-10-13T05:03:20;23.60;;;12.60;;
52386;SDS011;38317;53.084;6.960;2023-10-13T05:06:06;23.38;;;13.63;;
52386;SDS011;38317;53.084;6.960;2023-10-13T05:09:07;20.83;;;13.27;;
52386;SDS011;38317;53.084;6.960;2023-10-13T05:11:51;22.15;;;13.32;;
52386;SDS011;38317;53.084;6.960;2023-10-13T05:14:35;21.80;;;14.50;;
52386;SDS011;38317;53.084;6.960;2023-10-13T05:17:19;22.40;;;13.73;;
52386;SDS011;38317;53.084;6.960;2023-10-13T05:20:04;23.85;;;13.40;;
52386;SDS011;38317;53.084;6.960;2023-10-13T05:22:48;23.48;;;13.40;;
52386;SDS011;38317;53.084;6.960;2023-10-13T05:25:36;21.92;;;13.60;;
52386;SDS011;38317;53.084;6.960;2023-10-13T05:28:21;22.70;;;12.60;;
52386;SDS011;38317;53.084;6.960;2023-10-13T05:31:06;21.60;;;12.77;;
52386;SDS011;38317;53.084;6.960;2023-10-13T05:33:50;19.55;;;12.32;;
52386;SDS011;38317;53.084;6.960;2023-10-13T05:36:35;21.05;;;12.38;;
52386;SDS011;38317;53.084;6.960;2023-10-13T05:39:19;19.27;;;11.13;;
52386;SDS011;38317;53.084;6.960;2023-10-13T05:42:03;20.65;;;11.68;;
52386;SDS011;38317;53.084;6.960;2023-10-13T05:44:47;18.73;;;10.32;;
52386;SDS011;38317;53.084;6.960;2023-10-13T05:47:32;15.70;;;9.52;;
52386;SDS011;38317;53.084;6.960;2023-10-13T05:50:07;13.82;;;9.10;;
52386;SDS011;38317;53.084;6.960;2023-10-13T05:52:45;14.02;;;8.68;;
52386;SDS011;38317;53.084;6.960;2023-10-13T05:55:29;12.82;;;8.02;;
52386;SDS011;38317;53.084;6.960;2023-10-13T05:58:15;13.98;;;9.00;;
52386;SDS011;38317;53.084;6.960;2023-10-13T06:00:59;14.57;;;8.80;;
52386;SDS011;38317;53.084;6.960;2023-10-13T06:03:43;13.90;;;8.95;;
52386;SDS011;38317;53.084;6.960;2023-10-13T06:06:28;13.68;;;8.15;;
52386;SDS011;38317;53.084;6.960;2023-10-13T06:09:13;12.07;;;7.60;;
52386;SDS011;38317;53.084;6.960;2023-10-13T06:11:57;19.33;;;6.80;;
52386;SDS011;38317;53.084;6.960;2023-10-13T06:14:45;10.60;;;6.05;;
52386;SDS011;38317;53.084;6.960;2023-10-13T06:17:29;9.65;;;5.50;;
52386;SDS011;38317;53.084;6.960;2023-10-13T06:20:14;10.90;;;5.93;;
52386;SDS011;38317;53.084;6.960;2023-10-13T06:22:58;8.77;;;5.90;;
52386;SDS011;38317;53.084;6.960;2023-10-13T06:25:42;9.25;;;6.28;;
52386;SDS011;38317;53.084;6.960;2023-10-13T06:28:26;11.52;;;6.00;;
52386;SDS011;38317;53.084;6.960;2023-10-13T06:31:08;8.80;;;5.28;;
52386;SDS011;38317;53.084;6.960;2023-10-13T06:33:47;7.78;;;5.20;;
52386;SDS011;38317;53.084;6.960;2023-10-13T06:36:13;8.60;;;5.45;;
52386;SDS011;38317;53.084;6.960;2023-10-13T06:38:39;10.68;;;5.55;;
52386;SDS011;38317;53.084;6.960;2023-10-13T06:41:07;9.32;;;5.80;;
52386;SDS011;38317;53.084;6.960;2023-10-13T06:43:33;8.00;;;5.45;;
52386;SDS011;38317;53.084;6.960;2023-10-13T06:46:08;7.65;;;5.25;;
52386;SDS011;38317;53.084;6.960;2023-10-13T06:48:49;9.30;;;5.25;;
52386;SDS011;38317;53.084;6.960;2023-10-13T06:51:24;9.57;;;5.28;;
52386;SDS011;38317;53.084;6.960;2023-10-13T06:53:56;8.98;;;5.28;;
52386;SDS011;38317;53.084;6.960;2023-10-13T06:56:22;8.35;;;5.40;;
52386;SDS011;38317;53.084;6.960;2023-10-13T06:58:56;8.48;;;4.97;;
52386;SDS011;38317;53.084;6.960;2023-10-13T07:01:25;6.53;;;3.90;;
52386;SDS011;38317;53.084;6.960;2023-10-13T07:03:52;7.65;;;4.10;;
52386;SDS011;38317;53.084;6.960;2023-10-13T07:06:21;7.70;;;3.65;;
52386;SDS011;38317;53.084;6.960;2023-10-13T07:08:47;7.10;;;3.40;;
52386;SDS011;38317;53.084;6.960;2023-10-13T07:11:26;7.15;;;3.92;;
52386;SDS011;38317;53.084;6.960;2023-10-13T07:14:05;6.75;;;3.45;;
52386;SDS011;38317;53.084;6.960;2023-10-13T07:17:23;5.60;;;2.60;;
52386;SDS011;38317;53.084;6.960;2023-10-13T07:19:33;5.20;;;2.33;;
52386;SDS011;38317;53.084;6.960;2023-10-13T07:21:59;4.97;;;2.38;;
52386;SDS011;38317;53.084;6.960;2023-10-13T07:24:45;7.53;;;2.70;;
52386;SDS011;38317;53.084;6.960;2023-10-13T07:27:21;6.22;;;2.58;;
52386;SDS011;38317;53.084;6.960;2023-10-13T07:29:54;6.78;;;2.55;;
52386;SDS011;38317;53.084;6.960;2023-10-13T07:32:42;6.25;;;2.85;;
52386;SDS011;38317;53.084;6.960;2023-10-13T07:35:15;5.85;;;2.50;;
52386;SDS011;38317;53.084;6.960;2023-10-13T07:37:45;6.10;;;2.50;;
52386;SDS011;38317;53.084;6.960;2023-10-13T07:40:14;6.47;;;3.00;;
52386;SDS011;38317;53.084;6.960;2023-10-13T07:42:55;8.00;;;2.40;;
52386;SDS011;38317;53.084;6.960;2023-10-13T07:45:38;12.60;;;2.90;;
52386;SDS011;38317;53.084;6.960;2023-10-13T07:48:06;8.98;;;3.20;;
52386;SDS011;38317;53.084;6.960;2023-10-13T07:50:46;7.88;;;3.40;;
52386;SDS011;38317;53.084;6.960;2023-10-13T07:53:14;8.50;;;2.67;;
52386;SDS011;38317;53.084;6.960;2023-10-13T07:55:47;7.10;;;2.40;;
52386;SDS011;38317;53.084;6.960;2023-10-13T07:58:20;7.63;;;2.78;;
52386;SDS011;38317;53.084;6.960;2023-10-13T08:00:50;9.48;;;2.42;;
52386;SDS011;38317;53.084;6.960;2023-10-13T08:03:33;11.25;;;3.17;;
52386;SDS011;38317;53.084;6.960;2023-10-13T08:06:09;8.95;;;3.00;;
52386;SDS011;38317;53.084;6.960;2023-10-13T08:08:39;9.93;;;3.08;;
52386;SDS011;38317;53.084;6.960;2023-10-13T08:11:09;8.55;;;3.00;;
52386;SDS011;38317;53.084;6.960;2023-10-13T08:13:59;7.88;;;3.15;;
52386;SDS011;38317;53.084;6.960;2023-10-13T08:16:45;12.15;;;3.53;;
52386;SDS011;38317;53.084;6.960;2023-10-13T08:19:22;8.25;;;3.55;;
52386;SDS011;38317;53.084;6.960;2023-10-13T08:22:08;9.52;;;3.08;;
52386;SDS011;38317;53.084;6.960;2023-10-13T08:24:50;11.18;;;3.53;;
52386;SDS011;38317;53.084;6.960;2023-10-13T08:27:21;8.93;;;3.17;;
52386;SDS011;38317;53.084;6.960;2023-10-13T08:29:59;8.65;;;2.83;;
52386;SDS011;38317;53.084;6.960;2023-10-13T08:32:28;8.68;;;3.50;;
52386;SDS011;38317;53.084;6.960;2023-10-13T08:34:57;12.63;;;3.25;;
52386;SDS011;38317;53.084;6.960;2023-10-13T08:37:24;6.82;;;2.83;;
52386;SDS011;38317;53.084;6.960;2023-10-13T08:39:52;11.75;;;3.35;;
52386;SDS011;38317;53.084;6.960;2023-10-13T08:42:28;12.27;;;3.75;;
52386;SDS011;38317;53.084;6.960;2023-10-13T08:45:15;10.38;;;3.60;;
52386;SDS011;38317;53.084;6.960;2023-10-13T08:47:51;14.10;;;3.72;;
52386;SDS011;38317;53.084;6.960;2023-10-13T08:50:44;9.63;;;3.85;;
52386;SDS011;38317;53.084;6.960;2023-10-13T08:56:21;12.55;;;4.40;;
52386;SDS011;38317;53.084;6.960;2023-10-13T08:59:00;12.48;;;4.10;;
52386;SDS011;38317;53.084;6.960;2023-10-13T09:01:29;12.00;;;4.18;;
52386;SDS011;38317;53.084;6.960;2023-10-13T09:04:24;11.90;;;4.05;;
52386;SDS011;38317;53.084;6.960;2023-10-13T09:07:00;16.60;;;5.05;;
52386;SDS011;38317;53.084;6.960;2023-10-13T09:09:51;14.63;;;4.80;;
52386;SDS011;38317;53.084;6.960;2023-10-13T09:15:07;13.98;;;5.00;;
52386;SDS011;38317;53.084;6.960;2023-10-13T09:17:41;14.73;;;5.05;;
52386;SDS011;38317;53.084;6.960;2023-10-13T09:20:13;15.02;;;5.13;;
52386;SDS011;38317;53.084;6.960;2023-10-13T09:22:56;15.10;;;5.00;;
52386;SDS011;38317;53.084;6.960;2023-10-13T09:25:32;16.83;;;5.65;;
52386;SDS011;38317;53.084;6.960;2023-10-13T09:28:14;14.57;;;5.22;;
52386;SDS011;38317;53.084;6.960;2023-10-13T09:30:44;13.35;;;4.93;;
52386;SDS011;38317;53.084;6.960;2023-10-13T09:33:11;15.18;;;5.53;;
52386;SDS011;38317;53.084;6.960;2023-10-13T09:35:53;14.75;;;5.30;;
52386;SDS011;38317;53.084;6.960;2023-10-13T09:38:19;15.18;;;5.32;;
52386;SDS011;38317;53.084;6.960;2023-10-13T09:40:46;14.65;;;5.15;;
52386;SDS011;38317;53.084;6.960;2023-10-13T09:43:21;12.07;;;4.35;;
52386;SDS011;38317;53.084;6.960;2023-10-13T09:45:49;13.27;;;5.20;;
52386;SDS011;38317;53.084;6.960;2023-10-13T09:48:37;10.77;;;4.85;;
52386;SDS011;38317;53.084;6.960;2023-10-13T09:51:06;13.65;;;5.40;;
52386;SDS011;38317;53.084;6.960;2023-10-13T09:53:37;14.98;;;5.50;;
52386;SDS011;38317;53.084;6.960;2023-10-13T10:01:36;14.00;;;4.85;;
52386;SDS011;38317;53.084;6.960;2023-10-13T10:04:15;12.60;;;4.82;;
52386;SDS011;38317;53.084;6.960;2023-10-13T10:06:53;12.02;;;4.78;;
52386;SDS011;38317;53.084;6.960;2023-10-13T10:09:25;13.13;;;4.35;;
52386;SDS011;38317;53.084;6.960;2023-10-13T10:17:55;12.93;;;4.20;;
52386;SDS011;38317;53.084;6.960;2023-10-13T10:20:28;14.68;;;4.55;;
52386;SDS011;38317;53.084;6.960;2023-10-13T10:22:58;12.55;;;4.57;;
52386;SDS011;38317;53.084;6.960;2023-10-13T10:25:29;8.75;;;4.10;;
52386;SDS011;38317;53.084;6.960;2023-10-13T10:28:06;13.75;;;4.97;;
52386;SDS011;38317;53.084;6.960;2023-10-13T10:30:37;11.35;;;4.70;;
52386;SDS011;38317;53.084;6.960;2023-10-13T10:33:07;13.18;;;4.60;;
52386;SDS011;38317;53.084;6.960;2023-10-13T10:35:47;14.98;;;4.45;;
52386;SDS011;38317;53.084;6.960;2023-10-13T10:38:23;12.75;;;4.18;;
52386;SDS011;38317;53.084;6.960;2023-10-13T10:41:01;14.30;;;4.07;;
52386;SDS011;38317;53.084;6.960;2023-10-13T10:46:13;12.45;;;4.25;;
52386;SDS011;38317;53.084;6.960;2023-10-13T10:49:05;13.95;;;4.45;;
52386;SDS011;38317;53.084;6.960;2023-10-13T10:51:33;14.43;;;4.30;;
52386;SDS011;38317;53.084;6.960;2023-10-13T10:54:17;13.55;;;3.83;;
52386;SDS011;38317;53.084;6.960;2023-10-13T10:56:46;14.88;;;4.15;;
52386;SDS011;38317;53.084;6.960;2023-10-13T10:59:20;9.75;;;3.60;;
52386;SDS011;38317;53.084;6.960;2023-10-13T11:01:50;10.70;;;3.97;;
52386;SDS011;38317;53.084;6.960;2023-10-13T11:04:19;11.95;;;3.65;;
52386;SDS011;38317;53.084;6.960;2023-10-13T11:09:27;14.27;;;4.57;;
52386;SDS011;38317;53.084;6.960;2023-10-13T11:14:44;11.52;;;3.97;;
52386;SDS011;38317;53.084;6.960;2023-10-13T11:17:20;12.32;;;3.53;;
52386;SDS011;38317;53.084;6.960;2023-10-13T11:19:51;10.82;;;3.55;;
52386;SDS011;38317;53.084;6.960;2023-10-13T11:22:21;17.35;;;4.03;;
52386;SDS011;38317;53.084;6.960;2023-10-13T11:25:07;11.88;;;3.70;;
52386;SDS011;38317;53.084;6.960;2023-10-13T11:27:36;14.00;;;3.65;;
52386;SDS011;38317;53.084;6.960;2023-10-13T11:30:26;13.05;;;3.42;;
52386;SDS011;38317;53.084;6.960;2023-10-13T11:33:09;15.77;;;3.78;;
52386;SDS011;38317;53.084;6.960;2023-10-13T11:35:36;13.73;;;3.40;;
52386;SDS011;38317;53.084;6.960;2023-10-13T11:41:05;10.23;;;3.03;;
52386;SDS011;38317;53.084;6.960;2023-10-13T11:43:31;14.48;;;3.60;;
52386;SDS011;38317;53.084;6.960;2023-10-13T11:46:01;13.10;;;4.93;;
52386;SDS011;38317;53.084;6.960;2023-10-13T11:48:36;10.10;;;3.35;;
52386;SDS011;38317;53.084;6.960;2023-10-13T11:51:02;12.45;;;3.75;;
52386;SDS011;38317;53.084;6.960;2023-10-13T11:53:42;13.95;;;3.75;;
52386;SDS011;38317;53.084;6.960;2023-10-13T11:56:10;11.45;;;4.00;;
52386;SDS011;38317;53.084;6.960;2023-10-13T11:58:39;17.02;;;4.10;;
52386;SDS011;38317;53.084;6.960;2023-10-13T12:01:06;15.40;;;3.63;;
52386;SDS011;38317;53.084;6.960;2023-10-13T12:03:37;15.68;;;3.97;;
52386;SDS011;38317;53.084;6.960;2023-10-13T12:06:25;12.13;;;3.85;;
52386;SDS011;38317;53.084;6.960;2023-10-13T12:09:10;12.10;;;3.60;;
52386;SDS011;38317;53.084;6.960;2023-10-13T12:11:45;12.52;;;3.53;;
52386;SDS011;38317;53.084;6.960;2023-10-13T12:14:19;13.50;;;4.10;;
52386;SDS011;38317;53.084;6.960;2023-10-13T12:19:29;13.20;;;3.58;;
52386;SDS011;38317;53.084;6.960;2023-10-13T12:21:56;16.60;;;3.90;;
52386;SDS011;38317;53.084;6.960;2023-10-13T12:24:29;12.30;;;3.78;;
52386;SDS011;38317;53.084;6.960;2023-10-13T12:27:00;14.10;;;4.03;;
52386;SDS011;38317;53.084;6.960;2023-10-13T12:32:21;11.75;;;4.20;;
52386;SDS011;38317;53.084;6.960;2023-10-13T12:34:50;10.75;;;4.10;;
52386;SDS011;38317;53.084;6.960;2023-10-13T12:37:28;14.07;;;4.40;;
52386;SDS011;38317;53.084;6.960;2023-10-13T12:40:08;12.68;;;4.25;;
52386;SDS011;38317;53.084;6.960;2023-10-13T12:42:55;15.68;;;4.10;;
52386;SDS011;38317;53.084;6.960;2023-10-13T12:48:24;13.63;;;3.95;;
52386;SDS011;38317;53.084;6.960;2023-10-13T12:51:09;12.80;;;4.53;;
52386;SDS011;38317;53.084;6.960;2023-10-13T12:53:53;15.82;;;3.75;;
52386;SDS011;38317;53.084;6.960;2023-10-13T12:56:27;12.30;;;4.28;;
52386;SDS011;38317;53.084;6.960;2023-10-13T12:58:54;13.45;;;4.32;;
52386;SDS011;38317;53.084;6.960;2023-10-13T13:01:24;13.82;;;3.70;;
52386;SDS011;38317;53.084;6.960;2023-10-13T13:03:57;12.98;;;4.68;;
52386;SDS011;38317;53.084;6.960;2023-10-13T13:06:24;12.15;;;4.25;;
52386;SDS011;38317;53.084;6.960;2023-10-13T13:11:19;15.25;;;5.07;;
52386;SDS011;38317;53.084;6.960;2023-10-13T13:13:46;11.10;;;3.83;;
52386;SDS011;38317;53.084;6.960;2023-10-13T13:16:12;14.30;;;4.65;;
52386;SDS011;38317;53.084;6.960;2023-10-13T13:18:38;14.63;;;4.78;;
52386;SDS011;38317;53.084;6.960;2023-10-13T13:21:05;17.08;;;5.28;;
52386;SDS011;38317;53.084;6.960;2023-10-13T13:23:37;14.40;;;4.43;;
52386;SDS011;38317;53.084;6.960;2023-10-13T13:26:05;13.70;;;4.35;;
52386;SDS011;38317;53.084;6.960;2023-10-13T13:28:50;16.35;;;4.10;;
52386;SDS011;38317;53.084;6.960;2023-10-13T13:31:16;14.30;;;4.93;;
52386;SDS011;38317;53.084;6.960;2023-10-13T13:33:45;12.65;;;4.10;;
52386;SDS011;38317;53.084;6.960;2023-10-13T13:36:11;13.85;;;4.32;;
52386;SDS011;38317;53.084;6.960;2023-10-13T13:38:39;18.55;;;4.70;;
52386;SDS011;38317;53.084;6.960;2023-10-13T13:41:08;12.23;;;4.32;;
52386;SDS011;38317;53.084;6.960;2023-10-13T13:43:46;15.82;;;5.13;;
52386;SDS011;38317;53.084;6.960;2023-10-13T13:46:16;11.70;;;4.60;;
52386;SDS011;38317;53.084;6.960;2023-10-13T13:48:42;12.20;;;4.55;;
52386;SDS011;38317;53.084;6.960;2023-10-13T13:51:08;14.90;;;4.63;;
52386;SDS011;38317;53.084;6.960;2023-10-13T13:53:41;13.82;;;4.88;;
52386;SDS011;38317;53.084;6.960;2023-10-13T13:56:14;12.10;;;4.50;;
52386;SDS011;38317;53.084;6.960;2023-10-13T13:58:49;12.90;;;5.28;;
52386;SDS011;38317;53.084;6.960;2023-10-13T14:01:16;13.88;;;4.75;;
52386;SDS011;38317;53.084;6.960;2023-10-13T14:03:45;14.23;;;4.43;;
52386;SDS011;38317;53.084;6.960;2023-10-13T14:08:43;15.95;;;5.00;;
52386;SDS011;38317;53.084;6.960;2023-10-13T14:11:13;12.15;;;4.32;;
52386;SDS011;38317;53.084;6.960;2023-10-13T14:13:49;13.48;;;4.97;;
52386;SDS011;38317;53.084;6.960;2023-10-13T14:16:18;13.25;;;5.15;;
52386;SDS011;38317;53.084;6.960;2023-10-13T14:18:46;14.07;;;5.32;;
52386;SDS011;38317;53.084;6.960;2023-10-13T14:21:13;20.33;;;5.10;;
52386;SDS011;38317;53.084;6.960;2023-10-13T14:23:49;15.20;;;5.28;;
52386;SDS011;38317;53.084;6.960;2023-10-13T14:26:19;12.07;;;4.50;;
52386;SDS011;38317;53.084;6.960;2023-10-13T14:28:49;21.02;;;5.25;;
52386;SDS011;38317;53.084;6.960;2023-10-13T14:31:34;13.80;;;4.60;;
52386;SDS011;38317;53.084;6.960;2023-10-13T14:34:04;13.38;;;5.50;;
52386;SDS011;38317;53.084;6.960;2023-10-13T14:36:30;13.20;;;4.90;;
52386;SDS011;38317;53.084;6.960;2023-10-13T14:38:59;15.48;;;4.78;;
52386;SDS011;38317;53.084;6.960;2023-10-13T14:41:26;11.23;;;4.60;;
52386;SDS011;38317;53.084;6.960;2023-10-13T14:43:52;15.50;;;5.63;;
52386;SDS011;38317;53.084;6.960;2023-10-13T14:46:18;12.35;;;4.53;;
52386;SDS011;38317;53.084;6.960;2023-10-13T14:48:48;16.92;;;5.82;;
52386;SDS011;38317;53.084;6.960;2023-10-13T14:51:16;13.63;;;4.70;;
52386;SDS011;38317;53.084;6.960;2023-10-13T14:53:46;17.40;;;5.82;;
52386;SDS011;38317;53.084;6.960;2023-10-13T14:56:21;11.93;;;5.22;;
52386;SDS011;38317;53.084;6.960;2023-10-13T14:58:50;14.02;;;4.90;;
52386;SDS011;38317;53.084;6.960;2023-10-13T15:01:20;13.30;;;4.63;;
52386;SDS011;38317;53.084;6.960;2023-10-13T15:03:51;14.63;;;5.00;;
52386;SDS011;38317;53.084;6.960;2023-10-13T15:06:26;13.68;;;4.65;;
52386;SDS011;38317;53.084;6.960;2023-10-13T15:08:57;17.83;;;5.32;;
52386;SDS011;38317;53.084;6.960;2023-10-13T15:11:24;16.02;;;4.60;;
52386;SDS011;38317;53.084;6.960;2023-10-13T15:14:10;12.77;;;5.00;;
52386;SDS011;38317;53.084;6.960;2023-10-13T15:16:38;15.75;;;5.18;;
52386;SDS011;38317;53.084;6.960;2023-10-13T15:19:04;16.73;;;5.03;;
52386;SDS011;38317;53.084;6.960;2023-10-13T15:21:32;16.73;;;5.70;;
52386;SDS011;38317;53.084;6.960;2023-10-13T15:24:01;16.13;;;5.13;;
52386;SDS011;38317;53.084;6.960;2023-10-13T15:26:50;16.40;;;6.10;;
52386;SDS011;38317;53.084;6.960;2023-10-13T15:29:22;15.48;;;5.82;;
52386;SDS011;38317;53.084;6.960;2023-10-13T15:31:52;12.35;;;5.60;;
52386;SDS011;38317;53.084;6.960;2023-10-13T15:34:24;16.27;;;6.20;;
52386;SDS011;38317;53.084;6.960;2023-10-13T15:36:52;14.55;;;5.78;;
52386;SDS011;38317;53.084;6.960;2023-10-13T15:39:20;12.20;;;5.45;;
52386;SDS011;38317;53.084;6.960;2023-10-13T15:41:52;16.48;;;5.72;;
52386;SDS011;38317;53.084;6.960;2023-10-13T15:44:21;20.02;;;6.53;;
52386;SDS011;38317;53.084;6.960;2023-10-13T15:46:52;18.63;;;5.60;;
52386;SDS011;38317;53.084;6.960;2023-10-13T15:49:20;13.32;;;5.45;;
52386;SDS011;38317;53.084;6.960;2023-10-13T15:51:47;17.42;;;6.28;;
52386;SDS011;38317;53.084;6.960;2023-10-13T15:54:13;15.23;;;5.80;;
52386;SDS011;38317;53.084;6.960;2023-10-13T15:56:42;14.35;;;6.03;;
52386;SDS011;38317;53.084;6.960;2023-10-13T15:59:09;19.45;;;6.07;;
52386;SDS011;38317;53.084;6.960;2023-10-13T16:01:35;14.32;;;5.47;;